sensor_id;sensor_type;location;lat;lon;timestamp;P1;durP1;ratioP1;P2;durP2;ratioP2
9324;SDS011;4701;51.566;6.776;2023-03-12T06:02:05;14.60;;;3.65;;
9324;SDS011;4701;51.566;6.776;2023-03-12T06:04:07;11.43;;;3.13;;
9324;SDS011;4701;51.566;6.776;2023-03-12T06:06:09;9.95;;;2.78;;
9324;SDS011;4701;51.566;6.776;2023-03-12T06:08:12;4.80;;;2.13;;
9324;SDS011;4701;51.566;6.776;2023-03-12T06:10:14;3.90;;;2.17;;
9324;SDS011;4701;51.566;6.776;2023-03-12T06:12:17;4.25;;;1.98;;
9324;SDS011;4701;51.566;6.776;2023-03-12T06:14:19;3.53;;;1.70;;
9324;SDS011;4701;51.566;6.776;2023-03-12T06:16:23;6.50;;;1.65;;
9324;SDS011;4701;51.566;6.776;2023-03-12T06:18:27;4.22;;;1.35;;
9324;SDS011;4701;51.566;6.776;2023-03-12T06:20:29;2.53;;;1.05;;
9324;SDS011;4701;51.566;6.776;2023-03-12T06:22:31;2.13;;;1.08;;
9324;SDS011;4701;51.566;6.776;2023-03-12T06:24:33;1.85;;;1.00;;
9324;SDS011;4701;51.566;6.776;2023-03-12T06:26:38;1.83;;;1.05;;
9324;SDS011;4701;51.566;6.776;2023-03-12T06:28:41;2.58;;;0.80;;
9324;SDS011;4701;51.566;6.776;2023-03-12T06:30:43;3.50;;;0.88;;
9324;SDS011;4701;51.566;6.776;2023-03-12T06:32:45;2.25;;;1.23;;
9324;SDS011;4701;51.566;6.776;2023-03-12T06:34:48;3.05;;;1.08;;
9324;SDS011;4701;51.566;6.776;2023-03-12T06:36:50;3.25;;;0.77;;
9324;SDS011;4701;51.566;6.776;2023-03-12T06:38:52;3.15;;;0.85;;
9324;SDS011;4701;51.566;6.776;2023-03-12T06:40:54;1.52;;;0.60;;
9324;SDS011;4701;51.566;6.776;2023-03-12T06:42:57;2.20;;;0.80;;
9324;SDS011;4701;51.566;6.776;2023-03-12T06:44:59;15.85;;;3.17;;
9324;SDS011;4701;51.566;6.776;2023-03-12T06:47:01;35.95;;;4.38;;
9324;SDS011;4701;51.566;6.776;2023-03-12T06:49:02;29.63;;;3.83;;
9324;SDS011;4701;51.566;6.776;2023-03-12T06:51:06;27.38;;;4.47;;
9324;SDS011;4701;51.566;6.776;2023-03-12T06:53:08;34.72;;;6.35;;
9324;SDS011;4701;51.566;6.776;2023-03-12T06:55:10;42.63;;;9.35;;
9324;SDS011;4701;51.566;6.776;2023-03-12T06:57:11;79.95;;;15.07;;
9324;SDS011;4701;51.566;6.776;2023-03-12T06:59:15;62.70;;;13.63;;
9324;SDS011;4701;51.566;6.776;2023-03-12T07:01:17;41.45;;;9.90;;
9324;SDS011;4701;51.566;6.776;2023-03-12T07:03:19;39.20;;;9.02;;
9324;SDS011;4701;51.566;6.776;2023-03-12T07:05:21;28.95;;;7.63;;
9324;SDS011;4701;51.566;6.776;2023-03-12T07:07:25;30.67;;;7.82;;
9324;SDS011;4701;51.566;6.776;2023-03-12T07:09:27;26.23;;;7.03;;
9324;SDS011;4701;51.566;6.776;2023-03-12T07:11:29;20.05;;;5.03;;
9324;SDS011;4701;51.566;6.776;2023-03-12T07:13:30;12.85;;;4.15;;
9324;SDS011;4701;51.566;6.776;2023-03-12T07:15:32;8.20;;;3.25;;
9324;SDS011;4701;51.566;6.776;2023-03-12T07:17:34;9.60;;;3.00;;
9324;SDS011;4701;51.566;6.776;2023-03-12T07:19:36;6.45;;;2.22;;
9324;SDS011;4701;51.566;6.776;2023-03-12T07:21:38;6.13;;;1.92;;
9324;SDS011;4701;51.566;6.776;2023-03-12T07:23:41;4.30;;;1.83;;
9324;SDS011;4701;51.566;6.776;2023-03-12T07:25:43;6.50;;;1.60;;
9324;SDS011;4701;51.566;6.776;2023-03-12T07:27:45;1.77;;;1.00;;
9324;SDS011;4701;51.566;6.776;2023-03-12T07:29:47;1.90;;;1.10;;
9324;SDS011;4701;51.566;6.776;2023-03-12T07:31:48;7.32;;;0.90;;
9324;SDS011;4701;51.566;6.776;2023-03-12T07:33:50;4.30;;;1.05;;
9324;SDS011;4701;51.566;6.776;2023-03-12T07:35:52;4.80;;;1.17;;
9324;SDS011;4701;51.566;6.776;2023-03-12T07:37:54;10.43;;;1.85;;
9324;SDS011;4701;51.566;6.776;2023-03-12T07:39:57;10.35;;;2.50;;
9324;SDS011;4701;51.566;6.776;2023-03-12T07:41:59;11.40;;;2.53;;
9324;SDS011;4701;51.566;6.776;2023-03-12T07:44:02;10.05;;;3.00;;
9324;SDS011;4701;51.566;6.776;2023-03-12T07:46:04;10.98;;;2.72;;
9324;SDS011;4701;51.566;6.776;2023-03-12T07:48:06;11.52;;;2.30;;
9324;SDS011;4701;51.566;6.776;2023-03-12T07:50:08;6.57;;;2.10;;
9324;SDS011;4701;51.566;6.776;2023-03-12T07:52:11;4.82;;;1.92;;
9324;SDS011;4701;51.566;6.776;2023-03-12T07:54:13;3.10;;;1.30;;
9324;SDS011;4701;51.566;6.776;2023-03-12T07:56:16;8.18;;;2.20;;
9324;SDS011;4701;51.566;6.776;2023-03-12T07:58:18;7.75;;;2.20;;
9324;SDS011;4701;51.566;6.776;2023-03-12T08:00:19;3.17;;;1.40;;
9324;SDS011;4701;51.566;6.776;2023-03-12T08:02:22;4.38;;;1.67;;
9324;SDS011;4701;51.566;6.776;2023-03-12T08:04:23;2.90;;;1.40;;
9324;SDS011;4701;51.566;6.776;2023-03-12T08:06:25;4.60;;;1.52;;
9324;SDS011;4701;51.566;6.776;2023-03-12T08:08:27;1.85;;;0.90;;
9324;SDS011;4701;51.566;6.776;2023-03-12T08:10:30;2.35;;;1.05;;
9324;SDS011;4701;51.566;6.776;2023-03-12T08:12:33;2.00;;;0.60;;
9324;SDS011;4701;51.566;6.776;2023-03-12T08:14:36;2.75;;;0.80;;
9324;SDS011;4701;51.566;6.776;2023-03-12T08:16:38;1.30;;;0.60;;
9324;SDS011;4701;51.566;6.776;2023-03-12T08:18:40;2.50;;;0.75;;
9324;SDS011;4701;51.566;6.776;2023-03-12T08:20:42;1.15;;;0.75;;
9324;SDS011;4701;51.566;6.776;2023-03-12T08:22:44;1.10;;;0.47;;
9324;SDS011;4701;51.566;6.776;2023-03-12T08:24:46;2.40;;;0.52;;
9324;SDS011;4701;51.566;6.776;2023-03-12T08:26:48;1.05;;;0.40;;
9324;SDS011;4701;51.566;6.776;2023-03-12T08:28:51;0.47;;;0.35;;
9324;SDS011;4701;51.566;6.776;2023-03-12T08:30:54;0.55;;;0.38;;
9324;SDS011;4701;51.566;6.776;2023-03-12T08:32:58;1.15;;;0.40;;
9324;SDS011;4701;51.566;6.776;2023-03-12T08:35:00;2.92;;;0.60;;
9324;SDS011;4701;51.566;6.776;2023-03-12T08:37:04;3.17;;;0.68;;
9324;SDS011;4701;51.566;6.776;2023-03-12T08:39:06;5.25;;;2.45;;
9324;SDS011;4701;51.566;6.776;2023-03-12T08:41:07;5.38;;;2.20;;
9324;SDS011;4701;51.566;6.776;2023-03-12T08:43:09;4.82;;;1.92;;
9324;SDS011;4701;51.566;6.776;2023-03-12T08:45:12;5.22;;;2.03;;
9324;SDS011;4701;51.566;6.776;2023-03-12T08:47:14;4.65;;;1.70;;
9324;SDS011;4701;51.566;6.776;2023-03-12T08:49:16;5.43;;;2.17;;
9324;SDS011;4701;51.566;6.776;2023-03-12T08:51:18;4.35;;;2.17;;
9324;SDS011;4701;51.566;6.776;2023-03-12T08:53:21;2.70;;;1.42;;
9324;SDS011;4701;51.566;6.776;2023-03-12T08:55:22;2.25;;;1.30;;
9324;SDS011;4701;51.566;6.776;2023-03-12T08:57:25;9.23;;;1.70;;
9324;SDS011;4701;51.566;6.776;2023-03-12T08:59:27;16.23;;;3.80;;
9324;SDS011;4701;51.566;6.776;2023-03-12T09:01:30;25.52;;;5.28;;
9324;SDS011;4701;51.566;6.776;2023-03-12T09:03:32;34.08;;;5.68;;
9324;SDS011;4701;51.566;6.776;2023-03-12T09:05:33;28.75;;;6.18;;
9324;SDS011;4701;51.566;6.776;2023-03-12T09:07:35;32.85;;;6.85;;
9324;SDS011;4701;51.566;6.776;2023-03-12T09:09:38;16.67;;;4.53;;
9324;SDS011;4701;51.566;6.776;2023-03-12T09:11:39;7.07;;;2.00;;
9324;SDS011;4701;51.566;6.776;2023-03-12T09:13:41;3.67;;;2.17;;
9324;SDS011;4701;51.566;6.776;2023-03-12T09:15:43;7.70;;;1.90;;
9324;SDS011;4701;51.566;6.776;2023-03-12T09:17:46;4.00;;;1.83;;
9324;SDS011;4701;51.566;6.776;2023-03-12T09:19:51;8.20;;;2.03;;
9324;SDS011;4701;51.566;6.776;2023-03-12T09:21:53;7.05;;;2.10;;
9324;SDS011;4701;51.566;6.776;2023-03-12T09:23:54;6.25;;;1.90;;
9324;SDS011;4701;51.566;6.776;2023-03-12T09:25:57;3.45;;;1.58;;
9324;SDS011;4701;51.566;6.776;2023-03-12T09:27:58;2.28;;;1.40;;
9324;SDS011;4701;51.566;6.776;2023-03-12T09:30:01;3.22;;;1.02;;
9324;SDS011;4701;51.566;6.776;2023-03-12T09:32:03;2.90;;;1.10;;
9324;SDS011;4701;51.566;6.776;2023-03-12T09:34:07;2.03;;;0.80;;
9324;SDS011;4701;51.566;6.776;2023-03-12T09:36:08;1.52;;;0.70;;
9324;SDS011;4701;51.566;6.776;2023-03-12T09:38:11;1.63;;;0.70;;
9324;SDS011;4701;51.566;6.776;2023-03-12T09:40:14;0.93;;;0.70;;
9324;SDS011;4701;51.566;6.776;2023-03-12T09:42:20;0.40;;;0.40;;
9324;SDS011;4701;51.566;6.776;2023-03-12T09:44:26;0.82;;;0.50;;
9324;SDS011;4701;51.566;6.776;2023-03-12T09:46:34;0.32;;;0.30;;
9324;SDS011;4701;51.566;6.776;2023-03-12T09:48:39;0.93;;;0.50;;
9324;SDS011;4701;51.566;6.776;2023-03-12T09:50:43;6.07;;;0.80;;
9324;SDS011;4701;51.566;6.776;2023-03-12T09:52:49;3.38;;;0.73;;
9324;SDS011;4701;51.566;6.776;2023-03-12T09:54:55;5.82;;;1.30;;
9324;SDS011;4701;51.566;6.776;2023-03-12T09:57:04;5.72;;;1.20;;
9324;SDS011;4701;51.566;6.776;2023-03-12T09:59:11;2.63;;;0.88;;
9324;SDS011;4701;51.566;6.776;2023-03-12T10:01:20;4.03;;;1.08;;
9324;SDS011;4701;51.566;6.776;2023-03-12T10:03:45;13.05;;;3.30;;
9324;SDS011;4701;51.566;6.776;2023-03-12T10:06:09;15.77;;;3.17;;
9324;SDS011;4701;51.566;6.776;2023-03-12T10:08:16;9.85;;;2.80;;
9324;SDS011;4701;51.566;6.776;2023-03-12T10:10:34;7.20;;;2.50;;
9324;SDS011;4701;51.566;6.776;2023-03-12T10:12:48;5.78;;;1.80;;
9324;SDS011;4701;51.566;6.776;2023-03-12T10:15:06;4.00;;;1.70;;
9324;SDS011;4701;51.566;6.776;2023-03-12T10:17:22;3.15;;;1.40;;
9324;SDS011;4701;51.566;6.776;2023-03-12T10:19:40;2.65;;;1.50;;
9324;SDS011;4701;51.566;6.776;2023-03-12T10:21:54;5.03;;;1.70;;
9324;SDS011;4701;51.566;6.776;2023-03-12T10:24:11;3.40;;;1.30;;
9324;SDS011;4701;51.566;6.776;2023-03-12T10:26:23;2.83;;;1.10;;
9324;SDS011;4701;51.566;6.776;2023-03-12T10:28:33;2.70;;;1.05;;
9324;SDS011;4701;51.566;6.776;2023-03-12T10:30:37;3.00;;;0.77;;
9324;SDS011;4701;51.566;6.776;2023-03-12T10:32:43;0.80;;;0.63;;
9324;SDS011;4701;51.566;6.776;2023-03-12T10:34:49;1.33;;;0.73;;
9324;SDS011;4701;51.566;6.776;2023-03-12T10:36:57;1.10;;;0.60;;
9324;SDS011;4701;51.566;6.776;2023-03-12T10:39:03;0.60;;;0.45;;
9324;SDS011;4701;51.566;6.776;2023-03-12T10:41:13;1.38;;;0.57;;
9324;SDS011;4701;51.566;6.776;2023-03-12T10:43:19;0.70;;;0.50;;
9324;SDS011;4701;51.566;6.776;2023-03-12T10:45:24;0.52;;;0.30;;
9324;SDS011;4701;51.566;6.776;2023-03-12T10:47:36;1.25;;;0.43;;
9324;SDS011;4701;51.566;6.776;2023-03-12T10:49:38;0.60;;;0.47;;
9324;SDS011;4701;51.566;6.776;2023-03-12T10:51:52;0.55;;;0.30;;
9324;SDS011;4701;51.566;6.776;2023-03-12T10:53:56;1.35;;;0.35;;
9324;SDS011;4701;51.566;6.776;2023-03-12T10:55:59;0.30;;;0.30;;
9324;SDS011;4701;51.566;6.776;2023-03-12T10:58:04;0.30;;;0.30;;
9324;SDS011;4701;51.566;6.776;2023-03-12T11:00:07;0.32;;;0.28;;
9324;SDS011;4701;51.566;6.776;2023-03-12T11:02:27;0.88;;;0.30;;
9324;SDS011;4701;51.566;6.776;2023-03-12T11:04:31;0.35;;;0.30;;
9324;SDS011;4701;51.566;6.776;2023-03-12T11:06:33;1.73;;;0.30;;
9324;SDS011;4701;51.566;6.776;2023-03-12T11:08:35;1.40;;;0.35;;
9324;SDS011;4701;51.566;6.776;2023-03-12T11:10:42;0.20;;;0.20;;
9324;SDS011;4701;51.566;6.776;2023-03-12T11:12:52;2.85;;;0.40;;
9324;SDS011;4701;51.566;6.776;2023-03-12T11:14:56;3.65;;;0.57;;
9324;SDS011;4701;51.566;6.776;2023-03-12T11:16:59;16.35;;;1.90;;
9324;SDS011;4701;51.566;6.776;2023-03-12T11:19:27;3.10;;;0.88;;
9324;SDS011;4701;51.566;6.776;2023-03-12T11:21:31;5.57;;;0.85;;
9324;SDS011;4701;51.566;6.776;2023-03-12T11:23:36;3.97;;;0.77;;
9324;SDS011;4701;51.566;6.776;2023-03-12T11:25:44;3.00;;;0.80;;
9324;SDS011;4701;51.566;6.776;2023-03-12T11:27:53;1.27;;;0.40;;
9324;SDS011;4701;51.566;6.776;2023-03-12T11:29:56;0.90;;;0.45;;
9324;SDS011;4701;51.566;6.776;2023-03-12T11:32:05;0.47;;;0.32;;
9324;SDS011;4701;51.566;6.776;2023-03-12T11:34:18;0.50;;;0.35;;
9324;SDS011;4701;51.566;6.776;2023-03-12T11:36:27;0.10;;;0.10;;
9324;SDS011;4701;51.566;6.776;2023-03-12T11:38:37;0.45;;;0.40;;
9324;SDS011;4701;51.566;6.776;2023-03-12T11:40:57;1.20;;;0.22;;
9324;SDS011;4701;51.566;6.776;2023-03-12T11:43:11;0.30;;;0.30;;
9324;SDS011;4701;51.566;6.776;2023-03-12T11:45:25;1.55;;;0.30;;
9324;SDS011;4701;51.566;6.776;2023-03-12T11:47:39;1.40;;;0.30;;
9324;SDS011;4701;51.566;6.776;2023-03-12T11:49:58;0.47;;;0.47;;
9324;SDS011;4701;51.566;6.776;2023-03-12T11:52:08;0.28;;;0.20;;
9324;SDS011;4701;51.566;6.776;2023-03-12T11:54:24;0.38;;;0.38;;
9324;SDS011;4701;51.566;6.776;2023-03-12T11:56:39;0.45;;;0.17;;
9324;SDS011;4701;51.566;6.776;2023-03-12T11:58:49;1.05;;;0.20;;
9324;SDS011;4701;51.566;6.776;2023-03-12T12:01:07;0.30;;;0.30;;
9324;SDS011;4701;51.566;6.776;2023-03-12T12:03:18;0.65;;;0.10;;
9324;SDS011;4701;51.566;6.776;2023-03-12T12:05:36;0.25;;;0.20;;
9324;SDS011;4701;51.566;6.776;2023-03-12T12:07:47;0.38;;;0.10;;
9324;SDS011;4701;51.566;6.776;2023-03-12T12:10:00;3.92;;;0.30;;
9324;SDS011;4701;51.566;6.776;2023-03-12T12:12:20;0.30;;;0.20;;
9324;SDS011;4701;51.566;6.776;2023-03-12T12:14:36;0.77;;;0.25;;
9324;SDS011;4701;51.566;6.776;2023-03-12T12:16:57;0.20;;;0.20;;
9324;SDS011;4701;51.566;6.776;2023-03-12T12:19:12;0.25;;;0.20;;
9324;SDS011;4701;51.566;6.776;2023-03-12T12:21:27;0.45;;;0.20;;
9324;SDS011;4701;51.566;6.776;2023-03-12T12:23:40;0.73;;;0.20;;
9324;SDS011;4701;51.566;6.776;2023-03-12T12:25:56;0.57;;;0.30;;
9324;SDS011;4701;51.566;6.776;2023-03-12T12:28:24;0.28;;;0.28;;
9324;SDS011;4701;51.566;6.776;2023-03-12T12:30:43;0.77;;;0.20;;
9324;SDS011;4701;51.566;6.776;2023-03-12T12:33:07;3.35;;;0.50;;
9324;SDS011;4701;51.566;6.776;2023-03-12T12:35:26;2.33;;;0.70;;
9324;SDS011;4701;51.566;6.776;2023-03-12T12:37:36;3.95;;;0.60;;
9324;SDS011;4701;51.566;6.776;2023-03-12T12:39:47;2.53;;;0.60;;
9324;SDS011;4701;51.566;6.776;2023-03-12T12:41:53;1.38;;;0.40;;
9324;SDS011;4701;51.566;6.776;2023-03-12T12:44:01;1.02;;;0.30;;
9324;SDS011;4701;51.566;6.776;2023-03-12T12:46:07;0.45;;;0.28;;
9324;SDS011;4701;51.566;6.776;2023-03-12T12:48:17;0.20;;;0.20;;
9324;SDS011;4701;51.566;6.776;2023-03-12T12:50:24;0.50;;;0.40;;
9324;SDS011;4701;51.566;6.776;2023-03-12T12:52:30;0.22;;;0.20;;
9324;SDS011;4701;51.566;6.776;2023-03-12T12:54:33;0.28;;;0.15;;
9324;SDS011;4701;51.566;6.776;2023-03-12T12:56:44;0.20;;;0.10;;
9324;SDS011;4701;51.566;6.776;2023-03-12T12:58:55;0.20;;;0.20;;
9324;SDS011;4701;51.566;6.776;2023-03-12T13:01:04;0.10;;;0.10;;
9324;SDS011;4701;51.566;6.776;2023-03-12T13:03:10;1.67;;;0.20;;
9324;SDS011;4701;51.566;6.776;2023-03-12T13:05:18;0.10;;;0.10;;
9324;SDS011;4701;51.566;6.776;2023-03-12T13:07:29;0.28;;;0.17;;
9324;SDS011;4701;51.566;6.776;2023-03-12T13:09:38;0.10;;;0.10;;
9324;SDS011;4701;51.566;6.776;2023-03-12T13:11:43;0.68;;;0.10;;
9324;SDS011;4701;51.566;6.776;2023-03-12T13:13:48;0.52;;;0.10;;
9324;SDS011;4701;51.566;6.776;2023-03-12T13:15:51;0.20;;;0.10;;
9324;SDS011;4701;51.566;6.776;2023-03-12T13:18:20;0.30;;;0.20;;
9324;SDS011;4701;51.566;6.776;2023-03-12T13:20:26;0.28;;;0.22;;
9324;SDS011;4701;51.566;6.776;2023-03-12T13:22:44;0.47;;;0.20;;
9324;SDS011;4701;51.566;6.776;2023-03-12T13:24:56;0.20;;;0.20;;
9324;SDS011;4701;51.566;6.776;2023-03-12T13:27:13;0.10;;;0.10;;
9324;SDS011;4701;51.566;6.776;2023-03-12T13:29:21;0.75;;;0.20;;
9324;SDS011;4701;51.566;6.776;2023-03-12T13:31:38;0.60;;;0.30;;
9324;SDS011;4701;51.566;6.776;2023-03-12T13:33:41;0.52;;;0.20;;
9324;SDS011;4701;51.566;6.776;2023-03-12T13:35:47;0.10;;;0.10;;
9324;SDS011;4701;51.566;6.776;2023-03-12T13:38:04;0.10;;;0.10;;
9324;SDS011;4701;51.566;6.776;2023-03-12T13:43:00;0.20;;;0.20;;
9324;SDS011;4701;51.566;6.776;2023-03-12T13:45:23;0.73;;;0.15;;
9324;SDS011;4701;51.566;6.776;2023-03-12T13:47:29;0.10;;;0.10;;
9324;SDS011;4701;51.566;6.776;2023-03-12T13:49:33;0.10;;;0.10;;
9324;SDS011;4701;51.566;6.776;2023-03-12T13:51:54;0.20;;;0.20;;
9324;SDS011;4701;51.566;6.776;2023-03-12T13:54:15;0.20;;;0.20;;
9324;SDS011;4701;51.566;6.776;2023-03-12T13:56:19;0.10;;;0.10;;
9324;SDS011;4701;51.566;6.776;2023-03-12T13:58:26;2.30;;;0.20;;
9324;SDS011;4701;51.566;6.776;2023-03-12T14:00:30;0.08;;;0.08;;
9324;SDS011;4701;51.566;6.776;2023-03-12T14:02:39;0.10;;;0.00;;
9324;SDS011;4701;51.566;6.776;2023-03-12T14:04:47;0.15;;;0.10;;
9324;SDS011;4701;51.566;6.776;2023-03-12T14:06:52;0.10;;;0.10;;
9324;SDS011;4701;51.566;6.776;2023-03-12T14:09:09;0.55;;;0.30;;
9324;SDS011;4701;51.566;6.776;2023-03-12T14:11:38;0.50;;;0.20;;
9324;SDS011;4701;51.566;6.776;2023-03-12T14:16:26;0.47;;;0.15;;
9324;SDS011;4701;51.566;6.776;2023-03-12T14:18:35;1.60;;;0.35;;
9324;SDS011;4701;51.566;6.776;2023-03-12T14:20:38;0.30;;;0.22;;
9324;SDS011;4701;51.566;6.776;2023-03-12T14:22:54;2.45;;;0.68;;
9324;SDS011;4701;51.566;6.776;2023-03-12T14:25:00;1.42;;;0.60;;
9324;SDS011;4701;51.566;6.776;2023-03-12T14:27:10;0.93;;;0.60;;
9324;SDS011;4701;51.566;6.776;2023-03-12T14:29:18;1.05;;;0.50;;
9324;SDS011;4701;51.566;6.776;2023-03-12T14:31:22;2.03;;;0.50;;
9324;SDS011;4701;51.566;6.776;2023-03-12T14:33:25;0.47;;;0.40;;
9324;SDS011;4701;51.566;6.776;2023-03-12T14:35:35;0.55;;;0.38;;
9324;SDS011;4701;51.566;6.776;2023-03-12T14:37:41;1.42;;;0.40;;
9324;SDS011;4701;51.566;6.776;2023-03-12T14:39:48;0.57;;;0.52;;
9324;SDS011;4701;51.566;6.776;2023-03-12T14:41:54;0.60;;;0.32;;
9324;SDS011;4701;51.566;6.776;2023-03-12T14:44:02;0.30;;;0.22;;
9324;SDS011;4701;51.566;6.776;2023-03-12T14:46:12;0.20;;;0.20;;
9324;SDS011;4701;51.566;6.776;2023-03-12T14:48:19;0.20;;;0.20;;
9324;SDS011;4701;51.566;6.776;2023-03-12T14:50:22;0.40;;;0.17;;
9324;SDS011;4701;51.566;6.776;2023-03-12T14:52:28;0.30;;;0.20;;
9324;SDS011;4701;51.566;6.776;2023-03-12T14:54:30;0.63;;;0.30;;
9324;SDS011;4701;51.566;6.776;2023-03-12T14:56:32;0.25;;;0.25;;
9324;SDS011;4701;51.566;6.776;2023-03-12T14:58:40;0.70;;;0.30;;
9324;SDS011;4701;51.566;6.776;2023-03-12T15:00:43;0.47;;;0.30;;
9324;SDS011;4701;51.566;6.776;2023-03-12T15:02:56;0.10;;;0.10;;
9324;SDS011;4701;51.566;6.776;2023-03-12T15:05:04;0.20;;;0.20;;
9324;SDS011;4701;51.566;6.776;2023-03-12T15:07:08;0.20;;;0.20;;
9324;SDS011;4701;51.566;6.776;2023-03-12T15:09:15;0.47;;;0.20;;
9324;SDS011;4701;51.566;6.776;2023-03-12T15:11:19;0.35;;;0.20;;
9324;SDS011;4701;51.566;6.776;2023-03-12T15:13:23;0.10;;;0.10;;
9324;SDS011;4701;51.566;6.776;2023-03-12T15:15:28;0.43;;;0.20;;
9324;SDS011;4701;51.566;6.776;2023-03-12T15:17:36;1.08;;;0.60;;
9324;SDS011;4701;51.566;6.776;2023-03-12T15:19:38;1.42;;;0.77;;
9324;SDS011;4701;51.566;6.776;2023-03-12T15:21:40;5.22;;;1.20;;
9324;SDS011;4701;51.566;6.776;2023-03-12T15:23:44;4.18;;;1.77;;
9324;SDS011;4701;51.566;6.776;2023-03-12T15:25:49;4.40;;;2.20;;
9324;SDS011;4701;51.566;6.776;2023-03-12T15:28:24;6.60;;;1.55;;
9324;SDS011;4701;51.566;6.776;2023-03-12T15:30:28;3.60;;;1.95;;
9324;SDS011;4701;51.566;6.776;2023-03-12T15:32:30;5.25;;;2.00;;
9324;SDS011;4701;51.566;6.776;2023-03-12T15:34:33;8.18;;;2.30;;
9324;SDS011;4701;51.566;6.776;2023-03-12T15:36:36;3.42;;;1.85;;
9324;SDS011;4701;51.566;6.776;2023-03-12T15:38:48;4.38;;;1.75;;
9324;SDS011;4701;51.566;6.776;2023-03-12T15:40:53;2.55;;;0.98;;
9324;SDS011;4701;51.566;6.776;2023-03-12T15:42:58;1.20;;;1.10;;
9324;SDS011;4701;51.566;6.776;2023-03-12T15:45:03;1.70;;;0.65;;
9324;SDS011;4701;51.566;6.776;2023-03-12T15:47:08;1.50;;;0.88;;
9324;SDS011;4701;51.566;6.776;2023-03-12T15:49:17;1.55;;;0.65;;
9324;SDS011;4701;51.566;6.776;2023-03-12T15:51:28;0.55;;;0.43;;
9324;SDS011;4701;51.566;6.776;2023-03-12T15:53:33;1.23;;;0.60;;
9324;SDS011;4701;51.566;6.776;2023-03-12T15:55:35;0.40;;;0.40;;
9324;SDS011;4701;51.566;6.776;2023-03-12T15:57:44;0.38;;;0.38;;
9324;SDS011;4701;51.566;6.776;2023-03-12T16:02:34;0.90;;;0.40;;
9324;SDS011;4701;51.566;6.776;2023-03-12T16:04:37;0.22;;;0.22;;
9324;SDS011;4701;51.566;6.776;2023-03-12T16:06:39;0.80;;;0.60;;
9324;SDS011;4701;51.566;6.776;2023-03-12T16:08:42;0.63;;;0.40;;
9324;SDS011;4701;51.566;6.776;2023-03-12T16:10:47;1.40;;;0.52;;
9324;SDS011;4701;51.566;6.776;2023-03-12T16:12:58;1.23;;;0.60;;
9324;SDS011;4701;51.566;6.776;2023-03-12T16:15:01;0.55;;;0.40;;
9324;SDS011;4701;51.566;6.776;2023-03-12T16:17:05;0.45;;;0.32;;
9324;SDS011;4701;51.566;6.776;2023-03-12T16:19:17;0.52;;;0.30;;
9324;SDS011;4701;51.566;6.776;2023-03-12T16:21:20;1.40;;;0.32;;
9324;SDS011;4701;51.566;6.776;2023-03-12T16:23:22;0.30;;;0.30;;
9324;SDS011;4701;51.566;6.776;2023-03-12T16:25:24;0.30;;;0.30;;
9324;SDS011;4701;51.566;6.776;2023-03-12T16:27:25;0.80;;;0.35;;
9324;SDS011;4701;51.566;6.776;2023-03-12T16:29:29;1.10;;;0.47;;
9324;SDS011;4701;51.566;6.776;2023-03-12T16:31:33;0.32;;;0.30;;
9324;SDS011;4701;51.566;6.776;2023-03-12T16:33:35;0.40;;;0.20;;
9324;SDS011;4701;51.566;6.776;2023-03-12T16:35:37;0.47;;;0.20;;
9324;SDS011;4701;51.566;6.776;2023-03-12T16:37:39;1.73;;;0.28;;
9324;SDS011;4701;51.566;6.776;2023-03-12T16:39:41;0.73;;;0.20;;
9324;SDS011;4701;51.566;6.776;2023-03-12T16:41:45;0.30;;;0.30;;
9324;SDS011;4701;51.566;6.776;2023-03-12T16:43:48;0.30;;;0.10;;
9324;SDS011;4701;51.566;6.776;2023-03-12T16:45:54;0.40;;;0.30;;
9324;SDS011;4701;51.566;6.776;2023-03-12T16:47:57;0.35;;;0.30;;
9324;SDS011;4701;51.566;6.776;2023-03-12T16:50:00;0.35;;;0.20;;
9324;SDS011;4701;51.566;6.776;2023-03-12T16:52:11;0.73;;;0.20;;
9324;SDS011;4701;51.566;6.776;2023-03-12T16:54:18;0.50;;;0.30;;
9324;SDS011;4701;51.566;6.776;2023-03-12T16:56:20;0.45;;;0.25;;
9324;SDS011;4701;51.566;6.776;2023-03-12T16:58:24;0.28;;;0.20;;
9324;SDS011;4701;51.566;6.776;2023-03-12T17:00:29;0.30;;;0.15;;
9324;SDS011;4701;51.566;6.776;2023-03-12T17:02:34;0.32;;;0.10;;
9324;SDS011;4701;51.566;6.776;2023-03-12T17:04:38;1.92;;;0.60;;
9324;SDS011;4701;51.566;6.776;2023-03-12T17:06:40;0.90;;;0.60;;
9324;SDS011;4701;51.566;6.776;2023-03-12T17:08:42;1.08;;;0.65;;
9324;SDS011;4701;51.566;6.776;2023-03-12T17:10:44;1.67;;;0.70;;
9324;SDS011;4701;51.566;6.776;2023-03-12T17:12:46;0.52;;;0.40;;
9324;SDS011;4701;51.566;6.776;2023-03-12T17:14:48;1.48;;;0.52;;
9324;SDS011;4701;51.566;6.776;2023-03-12T17:16:50;0.43;;;0.43;;
9324;SDS011;4701;51.566;6.776;2023-03-12T17:18:54;0.30;;;0.30;;
9324;SDS011;4701;51.566;6.776;2023-03-12T17:20:56;0.90;;;0.30;;
9324;SDS011;4701;51.566;6.776;2023-03-12T17:22:58;0.57;;;0.30;;
9324;SDS011;4701;51.566;6.776;2023-03-12T17:25:02;1.67;;;0.30;;
9324;SDS011;4701;51.566;6.776;2023-03-12T17:27:05;0.57;;;0.40;;
9324;SDS011;4701;51.566;6.776;2023-03-12T17:29:06;0.43;;;0.30;;
9324;SDS011;4701;51.566;6.776;2023-03-12T17:31:08;0.57;;;0.28;;
9324;SDS011;4701;51.566;6.776;2023-03-12T17:33:11;0.25;;;0.25;;
9324;SDS011;4701;51.566;6.776;2023-03-12T17:35:19;0.32;;;0.30;;
9324;SDS011;4701;51.566;6.776;2023-03-12T17:37:20;0.63;;;0.30;;
9324;SDS011;4701;51.566;6.776;2023-03-12T17:39:22;0.55;;;0.40;;
9324;SDS011;4701;51.566;6.776;2023-03-12T17:41:24;1.25;;;0.20;;
9324;SDS011;4701;51.566;6.776;2023-03-12T17:43:26;0.65;;;0.40;;
9324;SDS011;4701;51.566;6.776;2023-03-12T17:45:28;0.30;;;0.30;;
9324;SDS011;4701;51.566;6.776;2023-03-12T17:47:30;1.15;;;0.35;;
9324;SDS011;4701;51.566;6.776;2023-03-12T17:49:32;0.45;;;0.20;;
9324;SDS011;4701;51.566;6.776;2023-03-12T17:51:35;0.95;;;0.30;;
9324;SDS011;4701;51.566;6.776;2023-03-12T17:53:37;0.20;;;0.20;;
9324;SDS011;4701;51.566;6.776;2023-03-12T17:55:40;0.10;;;0.10;;
9324;SDS011;4701;51.566;6.776;2023-03-12T17:57:42;1.00;;;0.30;;
9324;SDS011;4701;51.566;6.776;2023-03-12T17:59:44;0.20;;;0.20;;
9324;SDS011;4701;51.566;6.776;2023-03-12T18:01:46;0.65;;;0.30;;
9324;SDS011;4701;51.566;6.776;2023-03-12T18:03:48;0.10;;;0.10;;
9324;SDS011;4701;51.566;6.776;2023-03-12T18:05:50;0.10;;;0.10;;
9324;SDS011;4701;51.566;6.776;2023-03-12T18:07:53;0.30;;;0.20;;
9324;SDS011;4701;51.566;6.776;2023-03-12T18:09:55;0.20;;;0.20;;
9324;SDS011;4701;51.566;6.776;2023-03-12T18:11:57;0.35;;;0.20;;
9324;SDS011;4701;51.566;6.776;2023-03-12T18:13:58;0.20;;;0.20;;
9324;SDS011;4701;51.566;6.776;2023-03-12T18:16:00;0.10;;;0.10;;
9324;SDS011;4701;51.566;6.776;2023-03-12T18:18:02;0.32;;;0.28;;
9324;SDS011;4701;51.566;6.776;2023-03-12T18:20:05;0.10;;;0.10;;
9324;SDS011;4701;51.566;6.776;2023-03-12T18:22:09;0.73;;;0.50;;
9324;SDS011;4701;51.566;6.776;2023-03-12T18:24:14;0.88;;;0.50;;
9324;SDS011;4701;51.566;6.776;2023-03-12T18:26:16;1.95;;;0.43;;
9324;SDS011;4701;51.566;6.776;2023-03-12T18:28:18;2.42;;;0.50;;
9324;SDS011;4701;51.566;6.776;2023-03-12T18:30:20;0.43;;;0.40;;
9324;SDS011;4701;51.566;6.776;2023-03-12T18:32:22;0.40;;;0.40;;
9324;SDS011;4701;51.566;6.776;2023-03-12T18:34:23;1.90;;;0.30;;
9324;SDS011;4701;51.566;6.776;2023-03-12T18:36:25;0.40;;;0.20;;
9324;SDS011;4701;51.566;6.776;2023-03-12T18:38:27;0.35;;;0.30;;
9324;SDS011;4701;51.566;6.776;2023-03-12T18:40:30;0.70;;;0.28;;
9324;SDS011;4701;51.566;6.776;2023-03-12T18:42:33;0.90;;;0.30;;
9324;SDS011;4701;51.566;6.776;2023-03-12T18:44:35;0.30;;;0.30;;
9324;SDS011;4701;51.566;6.776;2023-03-12T18:46:36;0.80;;;0.40;;
9324;SDS011;4701;51.566;6.776;2023-03-12T18:48:38;0.40;;;0.20;;
9324;SDS011;4701;51.566;6.776;2023-03-12T18:50:40;1.50;;;0.30;;
9324;SDS011;4701;51.566;6.776;2023-03-12T18:52:42;3.15;;;0.75;;
9324;SDS011;4701;51.566;6.776;2023-03-12T18:54:43;6.65;;;1.80;;
9324;SDS011;4701;51.566;6.776;2023-03-12T18:56:47;7.68;;;1.95;;
9324;SDS011;4701;51.566;6.776;2023-03-12T18:58:48;7.57;;;2.03;;
9324;SDS011;4701;51.566;6.776;2023-03-12T19:00:50;8.02;;;1.98;;
9324;SDS011;4701;51.566;6.776;2023-03-12T19:02:52;12.75;;;3.15;;
9324;SDS011;4701;51.566;6.776;2023-03-12T19:04:54;18.33;;;4.05;;
9324;SDS011;4701;51.566;6.776;2023-03-12T19:06:56;23.48;;;4.82;;
9324;SDS011;4701;51.566;6.776;2023-03-12T19:08:59;26.60;;;6.13;;
9324;SDS011;4701;51.566;6.776;2023-03-12T19:11:02;18.65;;;5.03;;